Terminal Aerodrome Forecast
Issued by NWS

Home | Current Version | Previous Version | Text Only | Print | Product List | Glossary On
Versions: 1 2 3 4 5 6 7 8 9 10 11 12 13 14 15 16 17 18 19 20 21 22 23
000
FTUS43 KDVN 021700
TAFCID
TAF
KCID 021725Z 0218/0318 33005KT P6SM SCT110 BKN250
     FM022000 11005KT P6SM BKN110 OVC250
     FM030000 13006KT P6SM OVC080
     FM030900 15014G18KT 4SM -SN BR OVC025
     FM031200 17015G20KT 3SM -SNPL BR OVC015
     FM031600 21017G22KT 3SM -SNPL BR OVC012=

USA.gov is the U.S. government's official web portal to all federal, state and local government web resources and services.